windsock image

Welcome to Bigfield Strip.

anemometer image
     

 Help for dials.  
 
Local Met:

Wind:   
10 Min average:  
278 ° / 0.2 kts (0.9)
278° / 0.3

Temperature:  
14.5°C C
Dew Point:  
9.1°C C
QNH:  
Trend:  
1017.1 mb mb
-0.1mb/hr
BigField Strip. This image updates approximately every minute, it can have a two minute delay.  
 

Humidity:  
70 %
Sunrise:   05:51z
Sunset:   18:00z
Updated:  
  UTC
 
   More met info, trends, radar, history etc. available here   

LUTON Metar   EGGW 231750Z 25007KT CAVOK 14/08 Q1017
 
  TAF   2014/09/23 18:15 TAF TAF EGGW 231700Z 2318/2418 25006KT 9999 FEW045 PROB30 2320/2324 8000 BECMG 2401/2404 FEW003 BKN005 TEMPO 2401/2407 6000 -RADZ PROB40 TEMPO 2402/2407 3500 RADZ BKN003 BECMG 2407/2410 30010KT FEW015 SCT025 PROB40 TEMPO 2407/2412 6000 SHRA
 
BENSON Metar   EGUB 231750Z 22005KT CAVOK 16/07 Q1017 BLU NOSIG
 
  TAF   2014/09/23 18:03 TAF EGUB 231652Z 2318/2324 23005KT 9999 FEW040
 
Big Field view 1 icon   Big Field view 2 icon   Big Field view 3 icon   Chart AL3a in PDF icon   Chart AL3a in Word icon

WARNING:
This information is provided by the Airstrip unofficial weather station, DO NOT depend on the data provided here for any purpose.
This page is updated for latest Metars & TAF's every 5 minutes. Refresh the browser to check for the lastest.
Page designed for a minimum browser size of 1024x768.
© Copyright 2014 BigField Strip. This page auto generated 18:16 UTC - 23/09/2014   Contact Us
Valid HTML 4.01 Transitional     Windows uptime: 1 Days 15 Hours 44 Minutes 28 Seconds    WD started: 02:37 22/09/14    Free memory: 1509MB     Valid CSS!